Airfield :
LOGIN :

Register | Disclaimer

   EN    FR    IT 

 










Legend :    VFR   Marginal VFR   IFR   Intensive IFR   Very Intensive IFR
Visi :
Ceiling :
>= 8 km
>= 3000ft
5 to 8 km
1000 to 3000 ft
1500m to 5 km
500 to 1000 ft
800 to 1500m
200 to 500 ft
< 800m
< 200 ft
Symbols :   Thunderstorms  Fog  Heavy snow  Heavy precipitations  Wind > 20 kt
SIGMETs :     Misc.  Thunderstorms  Icing  Turbulence  Mountain Waves  Volcanic Ashes






- Airport Elevation : 1260 ft
- IATA code : LDE


LFBT - Tarbes / Ossun

CURRENT METAR :
  • 301400Z AUTO 36008KT 9999 SCT017 09/07 Q1016 NOSIG

EXPIRED METARs :
  • 301330Z AUTO 01007KT 9999 FEW010 09/07 Q1016 NOSIG
  • 301300Z AUTO 36006KT 320V030 CAVOK 10/07 Q1016 NOSIG
  • 301230Z AUTO 36006KT CAVOK 09/07 Q1016 NOSIG
  • 301200Z AUTO 35005KT 320V030 CAVOK 08/08 Q1017 NOSIG
  • 301130Z AUTO 36004KT CAVOK 08/08 Q1017 NOSIG

TAF TAF LFBT
Valid from the 30 at 12:00 until the 01 at 12:00 UTC


301100Z 3012/0112 05006KT CAVOK
BECMG 3016/3018 BKN007
BECMG 3019/3021 VRB03KT 4000 BR OVC003
PROB40
TEMPO 3022/0108 0600 FG VV///
BECMG 0109/0111 32006KT 8000 NSW OVC006



MET'MAP, your aeronautical weather chart ! - Copyright ORBIFLY December 2007 - Disclaimer

ORBIFLY MET'MAP TEAM :

Programming & Development : Alexandra Zaïnal
Original concept : Baudouin d'Aumeries
Technical & hardware support : Manuel Goepfert
Assistance : Marc-Olivier Méhu




SOURCES & CREDITS :

   NOAA